Time,TemperatureF,DewpointF,PressureIn,WindDirection,WindDirectionDegrees,WindSpeedMPH,WindSpeedGustMPH,Humidity,HourlyPrecipIn,Conditions,Clouds,dailyrainin,SoftwareType,DateUTC
2013-07-22 00:01:00,53.4,50.3,0.00,ENE,73,0.9,1.9,89,0.00,,,0.00,WUHU216CR1000,2013-07-22 07:01:00,
2013-07-22 00:06:00,53.3,50.4,0.00,East,84,0.9,1.8,90,0.00,,,0.00,WUHU216CR1000,2013-07-22 07:06:00,
2013-07-22 00:11:00,53.3,50.4,0.00,East,84,0.9,1.8,90,0.00,,,0.00,WUHU216CR1000,2013-07-22 07:11:00,
2013-07-22 00:16:00,53.3,50.4,0.00,East,84,0.9,1.8,90,0.00,,,0.00,WUHU216CR1000,2013-07-22 07:16:00,
2013-07-22 00:21:00,53.1,50.2,0.00,SE,127,0.9,2.0,90,0.00,,,0.00,WUHU216CR1000,2013-07-22 07:21:00,
2013-07-22 00:26:00,53.1,50.2,0.00,SE,127,0.9,2.0,90,0.00,,,0.00,WUHU216CR1000,2013-07-22 07:26:00,
2013-07-22 00:31:00,53.1,50.2,0.00,SE,127,0.9,2.0,90,0.00,,,0.00,WUHU216CR1000,2013-07-22 07:31:00,
2013-07-22 00:36:00,52.8,50.2,0.00,East,94,1.7,3.0,91,0.00,,,0.00,WUHU216CR1000,2013-07-22 07:36:00,
2013-07-22 00:41:00,52.8,50.2,0.00,East,94,1.7,3.0,91,0.00,,,0.00,WUHU216CR1000,2013-07-22 07:41:00,
2013-07-22 00:46:00,52.8,50.2,0.00,East,94,1.7,3.0,91,0.00,,,0.00,WUHU216CR1000,2013-07-22 07:46:00,
2013-07-22 00:51:00,52.6,50.1,0.00,East,94,0.7,3.0,91,0.00,,,0.00,WUHU216CR1000,2013-07-22 07:51:00,
2013-07-22 00:56:00,52.6,50.1,0.00,East,94,0.7,3.0,91,0.00,,,0.00,WUHU216CR1000,2013-07-22 07:56:00,
2013-07-22 01:01:00,52.6,50.1,0.00,East,94,0.7,3.0,91,0.00,,,0.00,WUHU216CR1000,2013-07-22 08:01:00,
2013-07-22 01:06:00,52.1,50.0,0.00,West,272,0.9,3.0,92,0.00,,,0.00,WUHU216CR1000,2013-07-22 08:06:00,
2013-07-22 01:11:00,52.1,50.0,0.00,West,272,0.9,2.4,92,0.00,,,0.00,WUHU216CR1000,2013-07-22 08:11:00,
2013-07-22 01:16:00,52.3,50.2,0.00,SW,216,0.5,2.4,93,0.00,,,0.00,WUHU216CR1000,2013-07-22 08:16:00,
2013-07-22 01:21:00,52.3,50.2,0.00,SW,216,0.5,1.8,93,0.00,,,0.00,WUHU216CR1000,2013-07-22 08:21:00,
2013-07-22 01:26:00,52.3,50.2,0.00,SW,216,0.5,1.8,93,0.00,,,0.00,WUHU216CR1000,2013-07-22 08:26:00,
2013-07-22 01:31:00,52.1,50.2,0.00,WSW,257,0.5,1.8,93,0.00,,,0.00,WUHU216CR1000,2013-07-22 08:31:00,
2013-07-22 01:36:00,52.1,50.2,0.00,WSW,257,0.5,1.6,93,0.00,,,0.00,WUHU216CR1000,2013-07-22 08:36:00,
2013-07-22 01:41:00,52.1,50.2,0.00,WSW,257,0.5,1.6,93,0.00,,,0.00,WUHU216CR1000,2013-07-22 08:41:00,
2013-07-22 01:46:00,52.1,50.2,0.00,South,189,0.7,1.8,93,0.00,,,0.00,WUHU216CR1000,2013-07-22 08:46:00,
2013-07-22 01:51:00,52.1,50.2,0.00,South,189,0.7,1.8,93,0.00,,,0.00,WUHU216CR1000,2013-07-22 08:51:00,
2013-07-22 01:56:00,52.1,50.2,0.00,South,189,0.7,1.8,93,0.00,,,0.00,WUHU216CR1000,2013-07-22 08:56:00,
2013-07-22 02:01:00,52.0,49.7,0.00,ESE,104,0.1,1.8,92,0.00,,,0.00,WUHU216CR1000,2013-07-22 09:01:00,
2013-07-22 02:06:00,52.0,49.7,0.00,ESE,104,0.1,0.9,92,0.00,,,0.00,WUHU216CR1000,2013-07-22 09:06:00,
2013-07-22 02:11:00,52.0,49.7,0.00,ESE,104,0.1,0.9,92,0.00,,,0.00,WUHU216CR1000,2013-07-22 09:11:00,
2013-07-22 02:16:00,51.8,49.4,0.00,North,0,0.0,0.9,92,0.00,,,0.00,WUHU216CR1000,2013-07-22 09:16:00,
2013-07-22 02:21:00,51.8,49.4,0.00,North,0,0.0,0.0,92,0.00,,,0.00,WUHU216CR1000,2013-07-22 09:21:00,
2013-07-22 02:26:00,51.8,49.4,0.00,North,0,0.0,0.0,92,0.00,,,0.00,WUHU216CR1000,2013-07-22 09:26:00,
2013-07-22 02:31:00,51.4,49.4,0.00,ENE,64,0.5,1.3,93,0.00,,,0.00,WUHU216CR1000,2013-07-22 09:31:00,
2013-07-22 02:36:00,51.4,49.4,0.00,ENE,64,0.5,1.3,93,0.00,,,0.00,WUHU216CR1000,2013-07-22 09:36:00,
2013-07-22 02:41:00,51.4,49.4,0.00,ENE,64,0.5,1.3,93,0.00,,,0.00,WUHU216CR1000,2013-07-22 09:41:00,
2013-07-22 02:46:00,51.4,49.4,0.00,ENE,64,0.5,1.3,93,0.00,,,0.00,WUHU216CR1000,2013-07-22 09:46:00,
2013-07-22 02:51:00,51.3,49.3,0.00,WSW,247,0.3,1.1,93,0.00,,,0.00,WUHU216CR1000,2013-07-22 09:51:00,
2013-07-22 02:56:00,51.3,49.3,0.00,WSW,247,0.3,1.1,93,0.00,,,0.00,WUHU216CR1000,2013-07-22 09:56:00,
2013-07-22 03:01:00,51.0,49.0,0.00,SW,228,0.2,1.1,93,0.00,,,0.00,WUHU216CR1000,2013-07-22 10:01:00,
2013-07-22 03:06:00,51.0,49.0,0.00,SW,228,0.2,1.0,93,0.00,,,0.00,WUHU216CR1000,2013-07-22 10:06:00,
2013-07-22 03:11:00,51.0,49.0,0.00,SW,228,0.2,1.0,93,0.00,,,0.00,WUHU216CR1000,2013-07-22 10:11:00,
2013-07-22 03:16:00,50.4,48.5,0.00,NNW,331,0.2,1.1,93,0.00,,,0.00,WUHU216CR1000,2013-07-22 10:16:00,
2013-07-22 03:21:00,50.4,48.5,0.00,NNW,331,0.2,1.1,93,0.00,,,0.00,WUHU216CR1000,2013-07-22 10:21:00,
2013-07-22 03:26:00,50.4,48.5,0.00,NNW,331,0.2,1.1,93,0.00,,,0.00,WUHU216CR1000,2013-07-22 10:26:00,
2013-07-22 03:31:00,50.2,48.7,0.00,NNW,327,0.5,2.0,95,0.00,,,0.00,WUHU216CR1000,2013-07-22 10:31:00,
2013-07-22 03:36:00,50.2,48.7,0.00,NNW,327,0.5,2.0,95,0.00,,,0.00,WUHU216CR1000,2013-07-22 10:36:00,
2013-07-22 03:41:00,50.2,48.7,0.00,NNW,327,0.5,2.0,95,0.00,,,0.00,WUHU216CR1000,2013-07-22 10:41:00,
2013-07-22 03:46:00,50.2,48.9,0.00,NNW,345,0.5,2.0,95,0.00,,,0.00,WUHU216CR1000,2013-07-22 10:46:00,
2013-07-22 03:51:00,50.2,48.9,0.00,NNW,345,0.5,2.0,95,0.00,,,0.00,WUHU216CR1000,2013-07-22 10:51:00,
2013-07-22 03:56:00,50.2,48.9,0.00,NNW,345,0.5,2.0,95,0.00,,,0.00,WUHU216CR1000,2013-07-22 10:56:00,
2013-07-22 04:01:00,50.5,49.3,0.00,NNW,334,0.8,2.2,95,0.00,,,0.00,WUHU216CR1000,2013-07-22 11:01:00,
2013-07-22 04:06:00,50.5,49.3,0.00,NNW,334,0.8,2.2,95,0.00,,,0.00,WUHU216CR1000,2013-07-22 11:06:00,
2013-07-22 04:11:00,50.5,49.3,0.00,NNW,334,0.8,2.2,95,0.00,,,0.00,WUHU216CR1000,2013-07-22 11:11:00,
2013-07-22 04:16:00,51.4,50.1,0.00,NNW,339,1.8,4.5,95,0.00,,,0.00,WUHU216CR1000,2013-07-22 11:16:00,
2013-07-22 04:21:00,51.4,50.1,0.00,NNW,339,1.8,4.5,95,0.00,,,0.00,WUHU216CR1000,2013-07-22 11:21:00,
2013-07-22 04:26:00,51.4,50.1,0.00,NNW,339,1.8,4.5,95,0.00,,,0.00,WUHU216CR1000,2013-07-22 11:26:00,
2013-07-22 04:31:00,51.9,50.1,0.00,NNW,337,1.7,4.5,94,0.00,,,0.00,WUHU216CR1000,2013-07-22 11:31:00,
2013-07-22 04:36:00,51.9,50.1,0.00,NNW,337,1.7,4.5,94,0.00,,,0.00,WUHU216CR1000,2013-07-22 11:36:00,
2013-07-22 04:41:00,51.9,50.1,0.00,NNW,337,1.7,4.5,94,0.00,,,0.00,WUHU216CR1000,2013-07-22 11:41:00,
2013-07-22 04:46:00,51.9,50.1,0.00,NNW,342,1.9,4.5,94,0.00,,,0.00,WUHU216CR1000,2013-07-22 11:46:00,
2013-07-22 04:51:00,51.9,50.1,0.00,NNW,342,1.9,4.5,94,0.00,,,0.00,WUHU216CR1000,2013-07-22 11:51:00,
2013-07-22 04:56:00,51.9,50.1,0.00,NNW,342,1.9,4.2,94,0.00,,,0.00,WUHU216CR1000,2013-07-22 11:56:00,
2013-07-22 05:01:00,51.7,50.1,0.00,North,358,1.3,4.2,94,0.00,,,0.00,WUHU216CR1000,2013-07-22 12:01:00,
2013-07-22 05:06:00,51.7,50.1,0.00,North,358,1.3,3.4,94,0.00,,,0.00,WUHU216CR1000,2013-07-22 12:06:00,
2013-07-22 05:11:00,51.7,50.1,0.00,North,358,1.3,3.4,94,0.00,,,0.00,WUHU216CR1000,2013-07-22 12:11:00,
2013-07-22 05:16:00,51.8,50.3,0.00,NNE,24,0.2,3.4,95,0.00,,,0.00,WUHU216CR1000,2013-07-22 12:16:00,
2013-07-22 05:21:00,51.8,50.3,0.00,NNE,24,0.2,1.8,95,0.00,,,0.00,WUHU216CR1000,2013-07-22 12:21:00,
2013-07-22 05:26:00,51.8,50.3,0.00,NNE,24,0.2,1.8,95,0.00,,,0.00,WUHU216CR1000,2013-07-22 12:26:00,
2013-07-22 05:31:00,51.7,50.1,0.00,South,185,0.4,1.8,94,0.00,,,0.00,WUHU216CR1000,2013-07-22 12:31:00,
2013-07-22 05:36:00,51.7,50.1,0.00,South,185,0.4,1.5,94,0.00,,,0.00,WUHU216CR1000,2013-07-22 12:36:00,
2013-07-22 05:41:00,51.7,50.1,0.00,South,185,0.4,1.5,94,0.00,,,0.00,WUHU216CR1000,2013-07-22 12:41:00,
2013-07-22 05:46:00,51.5,49.8,0.00,West,266,0.6,2.0,94,0.00,,,0.00,WUHU216CR1000,2013-07-22 12:46:00,
2013-07-22 05:51:00,51.5,49.8,0.00,West,266,0.6,2.0,94,0.00,,,0.00,WUHU216CR1000,2013-07-22 12:51:00,
2013-07-22 05:56:00,51.5,49.8,0.00,West,266,0.6,2.0,94,0.00,,,0.00,WUHU216CR1000,2013-07-22 12:56:00,
2013-07-22 06:01:00,51.5,49.8,0.00,West,266,0.6,2.0,94,0.00,,,0.00,WUHU216CR1000,2013-07-22 13:01:00,
2013-07-22 06:06:00,51.2,49.6,0.00,SW,235,1.5,3.6,95,0.00,,,0.00,WUHU216CR1000,2013-07-22 13:06:00,
2013-07-22 06:11:00,51.2,49.6,0.00,SW,235,1.5,3.6,95,0.00,,,0.00,WUHU216CR1000,2013-07-22 13:11:00,
2013-07-22 06:16:00,51.2,49.6,0.00,SW,235,1.5,3.6,95,0.00,,,0.00,WUHU216CR1000,2013-07-22 13:16:00,
2013-07-22 06:21:00,51.1,49.5,0.00,SW,215,1.3,3.6,94,0.00,,,0.00,WUHU216CR1000,2013-07-22 13:21:00,
2013-07-22 06:26:00,51.1,49.5,0.00,SW,215,1.3,2.5,94,0.00,,,0.00,WUHU216CR1000,2013-07-22 13:26:00,
2013-07-22 06:31:00,51.1,49.5,0.00,SW,215,1.3,2.5,94,0.00,,,0.00,WUHU216CR1000,2013-07-22 13:31:00,
2013-07-22 06:36:00,50.9,49.4,0.00,WSW,243,0.9,2.5,94,0.00,,,0.00,WUHU216CR1000,2013-07-22 13:36:00,
2013-07-22 06:41:00,50.9,49.4,0.00,WSW,243,0.9,2.5,94,0.00,,,0.00,WUHU216CR1000,2013-07-22 13:41:00,
2013-07-22 06:46:00,50.9,49.4,0.00,WSW,243,0.9,2.5,94,0.00,,,0.00,WUHU216CR1000,2013-07-22 13:46:00,
2013-07-22 06:51:00,51.2,49.6,0.00,SW,222,0.3,2.5,94,0.00,,,0.00,WUHU216CR1000,2013-07-22 13:51:00,
2013-07-22 06:56:00,51.2,49.6,0.00,SW,222,0.3,1.3,94,0.00,,,0.00,WUHU216CR1000,2013-07-22 13:56:00,
2013-07-22 07:01:00,51.2,49.6,0.00,SW,222,0.3,1.3,94,0.00,,,0.00,WUHU216CR1000,2013-07-22 14:01:00,
2013-07-22 07:06:00,53.1,50.7,0.00,NNE,31,0.1,1.3,92,0.00,,,0.00,WUHU216CR1000,2013-07-22 14:06:00,
2013-07-22 07:11:00,53.1,50.7,0.00,NNE,31,0.1,1.3,92,0.00,,,0.00,WUHU216CR1000,2013-07-22 14:11:00,
2013-07-22 07:16:00,53.1,50.7,0.00,NNE,31,0.1,1.3,92,0.00,,,0.00,WUHU216CR1000,2013-07-22 14:16:00,
2013-07-22 07:31:00,55.1,51.3,0.00,ESE,108,0.4,2.0,87,0.00,,,0.00,WUHU216CR1000,2013-07-22 14:31:00,
2013-07-22 07:36:00,55.1,51.3,0.00,ESE,108,0.4,2.0,87,0.00,,,0.00,WUHU216CR1000,2013-07-22 14:36:00,
2013-07-22 07:41:00,55.1,51.3,0.00,ESE,108,0.4,2.0,87,0.00,,,0.00,WUHU216CR1000,2013-07-22 14:41:00,
2013-07-22 07:46:00,55.1,51.3,0.00,ESE,108,0.4,2.0,87,0.00,,,0.00,WUHU216CR1000,2013-07-22 14:46:00,
2013-07-22 07:51:00,56.5,51.9,0.00,WSW,252,1.3,3.1,85,0.00,,,0.00,WUHU216CR1000,2013-07-22 14:51:00,
2013-07-22 07:56:00,56.5,51.9,0.00,WSW,252,1.3,3.1,85,0.00,,,0.00,WUHU216CR1000,2013-07-22 14:56:00,
2013-07-22 08:01:00,56.5,51.9,0.00,WSW,252,1.3,3.1,85,0.00,,,0.00,WUHU216CR1000,2013-07-22 15:01:00,
2013-07-22 08:06:00,57.4,52.5,0.00,West,269,1.4,3.4,84,0.00,,,0.00,WUHU216CR1000,2013-07-22 15:06:00,
2013-07-22 08:11:00,57.4,52.5,0.00,West,269,1.4,3.4,84,0.00,,,0.00,WUHU216CR1000,2013-07-22 15:11:00,
2013-07-22 08:16:00,57.4,52.5,0.00,West,269,1.4,3.4,84,0.00,,,0.00,WUHU216CR1000,2013-07-22 15:16:00,
2013-07-22 08:21:00,59.4,53.7,0.00,West,259,1.5,3.4,82,0.00,,,0.00,WUHU216CR1000,2013-07-22 15:21:00,
2013-07-22 08:26:00,59.4,53.7,0.00,West,259,1.5,3.4,82,0.00,,,0.00,WUHU216CR1000,2013-07-22 15:26:00,
2013-07-22 08:31:00,59.4,53.7,0.00,West,259,1.5,3.4,82,0.00,,,0.00,WUHU216CR1000,2013-07-22 15:31:00,
2013-07-22 08:36:00,60.0,54.0,0.00,WSW,239,2.5,4.5,80,0.00,,,0.00,WUHU216CR1000,2013-07-22 15:36:00,
2013-07-22 08:41:00,60.0,54.0,0.00,WSW,239,2.5,4.5,80,0.00,,,0.00,WUHU216CR1000,2013-07-22 15:41:00,
2013-07-22 08:46:00,60.0,54.0,0.00,WSW,239,2.5,4.5,80,0.00,,,0.00,WUHU216CR1000,2013-07-22 15:46:00,
2013-07-22 08:51:00,61.6,54.7,0.00,SW,221,2.8,5.7,78,0.00,,,0.00,WUHU216CR1000,2013-07-22 15:51:00,
2013-07-22 08:56:00,61.6,54.7,0.00,SW,221,2.8,5.7,78,0.00,,,0.00,WUHU216CR1000,2013-07-22 15:56:00,
2013-07-22 09:01:00,61.6,54.7,0.00,SW,221,2.8,5.7,78,0.00,,,0.00,WUHU216CR1000,2013-07-22 16:01:00,
2013-07-22 09:06:00,63.2,55.3,0.00,WSW,244,2.8,5.7,75,0.00,,,0.00,WUHU216CR1000,2013-07-22 16:06:00,
2013-07-22 09:11:00,63.2,55.3,0.00,WSW,244,2.8,5.6,75,0.00,,,0.00,WUHU216CR1000,2013-07-22 16:11:00,
2013-07-22 09:16:00,63.2,55.3,0.00,WSW,244,2.8,5.6,75,0.00,,,0.00,WUHU216CR1000,2013-07-22 16:16:00,
2013-07-22 09:21:00,64.1,55.4,0.00,SW,224,3.1,6.6,73,0.00,,,0.00,WUHU216CR1000,2013-07-22 16:21:00,
2013-07-22 09:26:00,64.1,55.4,0.00,SW,224,3.1,6.6,73,0.00,,,0.00,WUHU216CR1000,2013-07-22 16:26:00,
2013-07-22 09:31:00,64.1,55.4,0.00,SW,224,3.1,6.6,73,0.00,,,0.00,WUHU216CR1000,2013-07-22 16:31:00,
2013-07-22 09:36:00,64.3,56.0,0.00,SW,214,4.1,7.8,75,0.00,,,0.00,WUHU216CR1000,2013-07-22 16:36:00,
2013-07-22 09:41:00,64.3,56.0,0.00,SW,214,4.1,7.8,75,0.00,,,0.00,WUHU216CR1000,2013-07-22 16:41:00,
2013-07-22 09:46:00,64.3,56.0,0.00,SW,214,4.1,7.8,75,0.00,,,0.00,WUHU216CR1000,2013-07-22 16:46:00,
2013-07-22 09:51:00,65.9,57.0,0.00,WSW,252,3.2,8.1,73,0.00,,,0.00,WUHU216CR1000,2013-07-22 16:51:00,
2013-07-22 09:56:00,65.9,57.0,0.00,WSW,252,3.2,8.1,73,0.00,,,0.00,WUHU216CR1000,2013-07-22 16:56:00,
2013-07-22 10:01:00,65.9,57.0,0.00,WSW,252,3.2,8.1,73,0.00,,,0.00,WUHU216CR1000,2013-07-22 17:01:00,
2013-07-22 10:06:00,66.8,57.0,0.00,WSW,242,3.1,8.1,71,0.00,,,0.00,WUHU216CR1000,2013-07-22 17:06:00,
2013-07-22 10:11:00,66.8,57.0,0.00,WSW,242,3.1,6.4,71,0.00,,,0.00,WUHU216CR1000,2013-07-22 17:11:00,
2013-07-22 10:16:00,66.8,57.0,0.00,WSW,242,3.1,6.4,71,0.00,,,0.00,WUHU216CR1000,2013-07-22 17:16:00,
2013-07-22 10:21:00,68.0,57.2,0.00,SW,227,2.5,6.4,68,0.00,,,0.00,WUHU216CR1000,2013-07-22 17:21:00,
2013-07-22 10:26:00,68.0,57.2,0.00,SW,227,2.5,6.2,68,0.00,,,0.00,WUHU216CR1000,2013-07-22 17:26:00,
2013-07-22 10:31:00,68.0,57.2,0.00,SW,227,2.5,6.2,68,0.00,,,0.00,WUHU216CR1000,2013-07-22 17:31:00,
2013-07-22 10:35:00,69.7,57.2,0.00,SW,229,2.8,6.4,64,0.00,,,0.00,WUHU216CR1000,2013-07-22 17:35:00,
2013-07-22 10:41:00,69.7,57.2,0.00,SW,229,2.8,6.4,64,0.00,,,0.00,WUHU216CR1000,2013-07-22 17:41:00,
2013-07-22 10:45:00,69.7,57.2,0.00,SW,229,2.8,6.4,64,0.00,,,0.00,WUHU216CR1000,2013-07-22 17:45:00,
2013-07-22 10:50:00,71.2,57.2,0.00,SSW,212,2.0,6.4,61,0.00,,,0.00,WUHU216CR1000,2013-07-22 17:50:00,
2013-07-22 10:56:00,71.2,57.2,0.00,SSW,212,2.0,5.3,61,0.00,,,0.00,WUHU216CR1000,2013-07-22 17:56:00,
2013-07-22 11:01:00,71.2,57.2,0.00,SSW,212,2.0,5.3,61,0.00,,,0.00,WUHU216CR1000,2013-07-22 18:01:00,
2013-07-22 11:06:00,72.4,57.3,0.00,West,278,2.2,5.8,59,0.00,,,0.00,WUHU216CR1000,2013-07-22 18:06:00,
2013-07-22 11:11:00,72.4,57.3,0.00,West,278,2.2,5.8,59,0.00,,,0.00,WUHU216CR1000,2013-07-22 18:11:00,
2013-07-22 11:16:00,72.4,57.3,0.00,West,278,2.2,5.8,59,0.00,,,0.00,WUHU216CR1000,2013-07-22 18:16:00,
2013-07-22 11:21:00,74.5,57.5,0.00,WNW,283,1.9,5.8,55,0.00,,,0.00,WUHU216CR1000,2013-07-22 18:21:00,
2013-07-22 11:26:00,74.5,57.5,0.00,WNW,283,1.9,5.5,55,0.00,,,0.00,WUHU216CR1000,2013-07-22 18:26:00,
2013-07-22 11:31:00,74.4,56.3,0.00,South,191,2.1,5.9,53,0.00,,,0.00,WUHU216CR1000,2013-07-22 18:31:00,
2013-07-22 11:36:00,74.4,56.3,0.00,South,191,2.1,5.9,53,0.00,,,0.00,WUHU216CR1000,2013-07-22 18:36:00,
2013-07-22 11:41:00,74.4,56.3,0.00,South,191,2.1,5.9,53,0.00,,,0.00,WUHU216CR1000,2013-07-22 18:41:00,
2013-07-22 11:46:00,74.3,55.2,0.00,SSE,164,2.0,5.9,51,0.00,,,0.00,WUHU216CR1000,2013-07-22 18:46:00,
2013-07-22 11:51:00,74.3,55.2,0.00,SSE,164,2.0,4.7,51,0.00,,,0.00,WUHU216CR1000,2013-07-22 18:51:00,
2013-07-22 11:56:00,74.3,55.2,0.00,SSE,164,2.0,4.7,51,0.00,,,0.00,WUHU216CR1000,2013-07-22 18:56:00,
2013-07-22 12:02:00,75.5,55.8,0.00,South,179,1.6,4.8,50,0.00,,,0.00,WUHU216CR1000,2013-07-22 19:02:00,
2013-07-22 12:07:00,75.5,55.8,0.00,South,179,1.6,4.8,50,0.00,,,0.00,WUHU216CR1000,2013-07-22 19:07:00,
2013-07-22 12:12:00,75.5,55.8,0.00,South,179,1.6,4.8,50,0.00,,,0.00,WUHU216CR1000,2013-07-22 19:12:00,
2013-07-22 12:17:00,77.0,55.2,0.00,South,184,1.5,4.8,47,0.00,,,0.00,WUHU216CR1000,2013-07-22 19:17:00,
2013-07-22 12:22:00,77.0,55.2,0.00,South,184,1.5,4.1,47,0.00,,,0.00,WUHU216CR1000,2013-07-22 19:22:00,
2013-07-22 12:27:00,77.0,55.2,0.00,South,184,1.5,4.1,47,0.00,,,0.00,WUHU216CR1000,2013-07-22 19:27:00,
2013-07-22 12:32:00,78.2,56.0,0.00,SSW,205,2.1,4.8,47,0.00,,,0.00,WUHU216CR1000,2013-07-22 19:32:00,
2013-07-22 12:37:00,78.2,56.0,0.00,SSW,205,2.1,4.8,47,0.00,,,0.00,WUHU216CR1000,2013-07-22 19:37:00,
2013-07-22 12:42:00,78.2,56.0,0.00,SSW,205,2.1,4.8,47,0.00,,,0.00,WUHU216CR1000,2013-07-22 19:42:00,
2013-07-22 12:47:00,79.5,55.9,0.00,South,179,1.6,4.8,44,0.00,,,0.00,WUHU216CR1000,2013-07-22 19:47:00,
2013-07-22 12:53:00,79.5,55.9,0.00,South,179,1.6,4.8,44,0.00,,,0.00,WUHU216CR1000,2013-07-22 19:53:00,
2013-07-22 12:58:00,79.5,55.9,0.00,South,179,1.6,4.8,44,0.00,,,0.00,WUHU216CR1000,2013-07-22 19:58:00,
2013-07-22 13:03:00,80.7,56.0,0.00,SSE,152,3.1,7.7,43,0.00,,,0.00,WUHU216CR1000,2013-07-22 20:03:00,
2013-07-22 13:08:00,80.7,56.0,0.00,SSE,152,3.1,7.7,43,0.00,,,0.00,WUHU216CR1000,2013-07-22 20:08:00,
2013-07-22 13:13:00,80.7,56.0,0.00,SSE,152,3.1,7.7,43,0.00,,,0.00,WUHU216CR1000,2013-07-22 20:13:00,
2013-07-22 13:16:00,81.4,55.3,0.00,SSE,166,3.7,8.4,41,0.00,,,0.00,WUHU216CR1000,2013-07-22 20:16:00,
2013-07-22 13:17:00,81.4,55.3,0.00,SSE,166,3.7,8.4,41,0.00,,,0.00,WUHU216CR1000,2013-07-22 20:17:00,
2013-07-22 13:22:00,81.4,55.3,0.00,SSE,166,3.7,8.4,41,0.00,,,0.00,WUHU216CR1000,2013-07-22 20:22:00,
2013-07-22 13:27:00,81.4,55.3,0.00,SSE,166,3.7,8.4,41,0.00,,,0.00,WUHU216CR1000,2013-07-22 20:27:00,
2013-07-22 13:32:00,82.3,55.1,0.00,South,169,3.2,8.4,39,0.00,,,0.00,WUHU216CR1000,2013-07-22 20:32:00,
2013-07-22 13:37:00,82.3,55.1,0.00,South,169,3.2,7.2,39,0.00,,,0.00,WUHU216CR1000,2013-07-22 20:37:00,
2013-07-22 13:42:00,82.3,55.1,0.00,South,169,3.2,7.2,39,0.00,,,0.00,WUHU216CR1000,2013-07-22 20:42:00,
2013-07-22 13:43:00,82.3,55.1,0.00,South,169,3.2,7.2,39,0.00,,,0.00,WUHU216CR1000,2013-07-22 20:43:00,
2013-07-22 13:48:00,82.5,55.6,0.00,SSW,205,3.1,9.3,40,0.00,,,0.00,WUHU216CR1000,2013-07-22 20:48:00,
2013-07-22 13:53:00,82.5,55.6,0.00,SSW,205,3.1,9.3,40,0.00,,,0.00,WUHU216CR1000,2013-07-22 20:53:00,
2013-07-22 13:58:00,82.5,55.6,0.00,SSW,205,3.1,9.3,40,0.00,,,0.00,WUHU216CR1000,2013-07-22 20:58:00,
2013-07-22 14:03:00,83.1,57.5,0.00,South,179,5.1,10.3,42,0.00,,,0.00,WUHU216CR1000,2013-07-22 21:03:00,
2013-07-22 14:08:00,83.1,57.5,0.00,South,179,5.1,10.3,42,0.00,,,0.00,WUHU216CR1000,2013-07-22 21:08:00,
2013-07-22 14:13:00,83.1,57.5,0.00,South,179,5.1,10.3,42,0.00,,,0.00,WUHU216CR1000,2013-07-22 21:13:00,
2013-07-22 14:18:00,83.0,58.4,0.00,South,184,5.0,11.2,43,0.00,,,0.00,WUHU216CR1000,2013-07-22 21:18:00,
2013-07-22 14:23:00,83.0,58.4,0.00,South,184,5.0,11.2,43,0.00,,,0.00,WUHU216CR1000,2013-07-22 21:23:00,
2013-07-22 14:28:00,83.0,58.4,0.00,South,184,5.0,11.2,43,0.00,,,0.00,WUHU216CR1000,2013-07-22 21:28:00,
2013-07-22 14:33:00,82.9,58.1,0.00,South,180,5.5,11.5,43,0.00,,,0.00,WUHU216CR1000,2013-07-22 21:33:00,
2013-07-22 14:38:00,82.9,58.1,0.00,South,180,5.5,11.5,43,0.00,,,0.00,WUHU216CR1000,2013-07-22 21:38:00,
2013-07-22 14:43:00,82.9,58.1,0.00,South,180,5.5,11.5,43,0.00,,,0.00,WUHU216CR1000,2013-07-22 21:43:00,
2013-07-22 14:48:00,82.4,56.6,0.00,SSW,194,5.5,11.5,41,0.00,,,0.00,WUHU216CR1000,2013-07-22 21:48:00,
2013-07-22 14:53:00,82.4,56.6,0.00,SSW,194,5.5,11.2,41,0.00,,,0.00,WUHU216CR1000,2013-07-22 21:53:00,
2013-07-22 14:58:00,82.4,56.6,0.00,SSW,194,5.5,11.2,41,0.00,,,0.00,WUHU216CR1000,2013-07-22 21:58:00,
2013-07-22 15:03:00,81.9,54.9,0.00,South,191,5.8,11.5,40,0.00,,,0.00,WUHU216CR1000,2013-07-22 22:03:00,
2013-07-22 15:08:00,81.9,54.9,0.00,South,191,5.8,11.5,40,0.00,,,0.00,WUHU216CR1000,2013-07-22 22:08:00,
2013-07-22 15:13:00,81.9,54.9,0.00,South,191,5.8,11.5,40,0.00,,,0.00,WUHU216CR1000,2013-07-22 22:13:00,
2013-07-22 15:18:00,81.3,56.1,0.00,South,188,6.1,12.3,42,0.00,,,0.00,WUHU216CR1000,2013-07-22 22:18:00,
2013-07-22 15:23:00,81.3,56.1,0.00,South,188,6.1,12.3,42,0.00,,,0.00,WUHU216CR1000,2013-07-22 22:23:00,
2013-07-22 15:28:00,81.3,56.1,0.00,South,188,6.1,12.3,42,0.00,,,0.00,WUHU216CR1000,2013-07-22 22:28:00,
2013-07-22 15:33:00,81.2,55.4,0.00,SSW,193,6.2,16.0,41,0.00,,,0.00,WUHU216CR1000,2013-07-22 22:33:00,
2013-07-22 15:38:00,81.2,55.4,0.00,SSW,193,6.2,16.0,41,0.00,,,0.00,WUHU216CR1000,2013-07-22 22:38:00,
2013-07-22 15:43:00,81.2,55.4,0.00,SSW,193,6.2,16.0,41,0.00,,,0.00,WUHU216CR1000,2013-07-22 22:43:00,
2013-07-22 15:48:00,80.3,56.0,0.00,SSW,194,5.2,16.0,43,0.00,,,0.00,WUHU216CR1000,2013-07-22 22:48:00,
2013-07-22 15:53:00,80.3,56.0,0.00,SSW,194,5.2,13.2,43,0.00,,,0.00,WUHU216CR1000,2013-07-22 22:53:00,
2013-07-22 15:58:00,80.3,56.0,0.00,SSW,194,5.2,13.2,43,0.00,,,0.00,WUHU216CR1000,2013-07-22 22:58:00,
2013-07-22 16:03:00,78.7,56.3,0.00,SSW,199,6.1,13.3,46,0.00,,,0.00,WUHU216CR1000,2013-07-22 23:03:00,
2013-07-22 16:08:00,78.7,56.3,0.00,SSW,199,6.1,13.3,46,0.00,,,0.00,WUHU216CR1000,2013-07-22 23:08:00,
2013-07-22 16:13:00,78.7,56.3,0.00,SSW,199,6.1,13.3,46,0.00,,,0.00,WUHU216CR1000,2013-07-22 23:13:00,
2013-07-22 16:18:00,76.2,57.0,0.00,SSW,206,6.4,17.0,51,0.00,,,0.00,WUHU216CR1000,2013-07-22 23:18:00,
2013-07-22 16:23:00,76.2,57.0,0.00,SSW,206,6.4,17.0,51,0.00,,,0.00,WUHU216CR1000,2013-07-22 23:23:00,
2013-07-22 16:28:00,76.2,57.0,0.00,SSW,206,6.4,17.0,51,0.00,,,0.00,WUHU216CR1000,2013-07-22 23:28:00,
2013-07-22 16:33:00,75.4,58.1,0.00,SW,215,4.7,17.0,55,0.00,,,0.00,WUHU216CR1000,2013-07-22 23:33:00,
2013-07-22 16:38:00,75.4,58.1,0.00,SW,215,4.7,11.3,55,0.00,,,0.00,WUHU216CR1000,2013-07-22 23:38:00,
2013-07-22 16:43:00,75.4,58.1,0.00,SW,215,4.7,11.3,55,0.00,,,0.00,WUHU216CR1000,2013-07-22 23:43:00,
2013-07-22 16:48:00,74.5,57.0,0.00,SSW,213,6.2,15.2,54,0.00,,,0.00,WUHU216CR1000,2013-07-22 23:48:00,
2013-07-22 16:53:00,74.5,57.0,0.00,SSW,213,6.2,15.2,54,0.00,,,0.00,WUHU216CR1000,2013-07-22 23:53:00,
2013-07-22 16:58:00,74.5,57.0,0.00,SSW,213,6.2,15.2,54,0.00,,,0.00,WUHU216CR1000,2013-07-22 23:58:00,
2013-07-22 17:03:00,73.7,56.5,0.00,SSW,204,5.5,15.2,55,0.00,,,0.00,WUHU216CR1000,2013-07-23 00:03:00,
2013-07-22 17:08:00,73.7,56.5,0.00,SSW,204,5.5,13.9,55,0.00,,,0.00,WUHU216CR1000,2013-07-23 00:08:00,
2013-07-22 17:13:00,73.7,56.5,0.00,SSW,204,5.5,13.9,55,0.00,,,0.00,WUHU216CR1000,2013-07-23 00:13:00,
2013-07-22 17:18:00,72.7,56.5,0.00,SSW,200,5.8,13.9,57,0.00,,,0.00,WUHU216CR1000,2013-07-23 00:18:00,
2013-07-22 17:23:00,72.7,56.5,0.00,SSW,200,5.8,13.9,57,0.00,,,0.00,WUHU216CR1000,2013-07-23 00:23:00,
2013-07-22 17:28:00,72.7,56.5,0.00,SSW,200,5.8,13.9,57,0.00,,,0.00,WUHU216CR1000,2013-07-23 00:28:00,
2013-07-22 17:33:00,72.0,56.1,0.00,SSW,202,5.7,13.9,57,0.00,,,0.00,WUHU216CR1000,2013-07-23 00:33:00,
2013-07-22 17:38:00,72.0,56.1,0.00,SSW,202,5.7,12.3,57,0.00,,,0.00,WUHU216CR1000,2013-07-23 00:38:00,
2013-07-22 17:43:00,72.0,56.1,0.00,SSW,202,5.7,12.3,57,0.00,,,0.00,WUHU216CR1000,2013-07-23 00:43:00,
2013-07-22 17:48:00,71.5,55.5,0.00,South,191,3.9,12.3,57,0.00,,,0.00,WUHU216CR1000,2013-07-23 00:48:00,
2013-07-22 17:53:00,71.5,55.5,0.00,South,191,3.9,10.5,57,0.00,,,0.00,WUHU216CR1000,2013-07-23 00:53:00,
2013-07-22 17:58:00,71.5,55.5,0.00,South,191,3.9,10.5,57,0.00,,,0.00,WUHU216CR1000,2013-07-23 00:58:00,
2013-07-22 18:03:00,70.8,56.6,0.00,SSE,164,3.9,10.5,61,0.00,,,0.00,WUHU216CR1000,2013-07-23 01:03:00,
2013-07-22 18:08:00,70.8,56.6,0.00,SSE,164,3.9,8.6,61,0.00,,,0.00,WUHU216CR1000,2013-07-23 01:08:00,
2013-07-22 18:13:00,70.8,56.6,0.00,SSE,164,3.9,8.6,61,0.00,,,0.00,WUHU216CR1000,2013-07-23 01:13:00,
2013-07-22 18:18:00,70.0,56.2,0.00,South,176,3.9,8.8,62,0.00,,,0.00,WUHU216CR1000,2013-07-23 01:18:00,
2013-07-22 18:23:00,70.0,56.2,0.00,South,176,3.9,8.8,62,0.00,,,0.00,WUHU216CR1000,2013-07-23 01:23:00,
2013-07-22 18:28:00,70.0,56.2,0.00,South,176,3.9,8.8,62,0.00,,,0.00,WUHU216CR1000,2013-07-23 01:28:00,
2013-07-22 18:33:00,69.4,56.1,0.00,South,172,4.4,9.4,63,0.00,,,0.00,WUHU216CR1000,2013-07-23 01:33:00,
2013-07-22 18:38:00,69.4,56.1,0.00,South,172,4.4,9.4,63,0.00,,,0.00,WUHU216CR1000,2013-07-23 01:38:00,
2013-07-22 18:43:00,69.4,56.1,0.00,South,172,4.4,9.4,63,0.00,,,0.00,WUHU216CR1000,2013-07-23 01:43:00,
2013-07-22 18:48:00,68.3,56.2,0.00,SSE,161,3.8,10.7,65,0.00,,,0.00,WUHU216CR1000,2013-07-23 01:48:00,
2013-07-22 18:53:00,68.3,56.2,0.00,SSE,161,3.8,10.7,65,0.00,,,0.00,WUHU216CR1000,2013-07-23 01:53:00,
2013-07-22 18:58:00,68.3,56.2,0.00,SSE,161,3.8,10.7,65,0.00,,,0.00,WUHU216CR1000,2013-07-23 01:58:00,
2013-07-22 19:03:00,66.7,56.2,0.00,SE,137,3.3,11.3,69,0.00,,,0.00,WUHU216CR1000,2013-07-23 02:03:00,
2013-07-22 19:08:00,66.7,56.2,0.00,SE,137,3.3,11.3,69,0.00,,,0.00,WUHU216CR1000,2013-07-23 02:08:00,
2013-07-22 19:13:00,66.7,56.2,0.00,SE,137,3.3,11.3,69,0.00,,,0.00,WUHU216CR1000,2013-07-23 02:13:00,
2013-07-22 19:18:00,65.0,55.5,0.00,SE,146,3.4,11.3,71,0.00,,,0.00,WUHU216CR1000,2013-07-23 02:18:00,
2013-07-22 19:23:00,65.0,55.5,0.00,SE,146,3.4,8.1,71,0.00,,,0.00,WUHU216CR1000,2013-07-23 02:23:00,
2013-07-22 19:28:00,65.0,55.5,0.00,SE,146,3.4,8.1,71,0.00,,,0.00,WUHU216CR1000,2013-07-23 02:28:00,
2013-07-22 19:33:00,64.4,55.5,0.00,SSE,154,2.8,9.5,73,0.00,,,0.00,WUHU216CR1000,2013-07-23 02:33:00,
2013-07-22 19:38:00,64.4,55.5,0.00,SSE,154,2.8,9.5,73,0.00,,,0.00,WUHU216CR1000,2013-07-23 02:38:00,
2013-07-22 19:43:00,64.4,55.5,0.00,SSE,154,2.8,9.5,73,0.00,,,0.00,WUHU216CR1000,2013-07-23 02:43:00,
2013-07-22 19:48:00,63.8,55.1,0.00,SSW,199,3.6,11.4,73,0.00,,,0.00,WUHU216CR1000,2013-07-23 02:48:00,
2013-07-22 19:53:00,63.8,55.1,0.00,SSW,199,3.6,11.4,73,0.00,,,0.00,WUHU216CR1000,2013-07-23 02:53:00,
2013-07-22 19:58:00,63.8,55.1,0.00,SSW,199,3.6,11.4,73,0.00,,,0.00,WUHU216CR1000,2013-07-23 02:58:00,
2013-07-22 20:03:00,63.6,55.0,0.00,WSW,254,2.0,11.4,74,0.00,,,0.00,WUHU216CR1000,2013-07-23 03:03:00,
2013-07-22 20:08:00,63.6,55.0,0.00,WSW,254,2.0,8.8,74,0.00,,,0.00,WUHU216CR1000,2013-07-23 03:08:00,
2013-07-22 20:13:00,63.6,55.0,0.00,WSW,254,2.0,8.8,74,0.00,,,0.00,WUHU216CR1000,2013-07-23 03:13:00,
2013-07-22 20:18:00,63.5,54.9,0.00,West,265,1.3,8.8,74,0.00,,,0.00,WUHU216CR1000,2013-07-23 03:18:00,
2013-07-22 20:23:00,63.5,54.9,0.00,West,265,1.3,3.9,74,0.00,,,0.00,WUHU216CR1000,2013-07-23 03:23:00,
2013-07-22 20:28:00,63.5,54.9,0.00,West,265,1.3,3.9,74,0.00,,,0.00,WUHU216CR1000,2013-07-23 03:28:00,
2013-07-22 20:33:00,63.4,54.8,0.00,WSW,237,2.3,3.9,74,0.00,,,0.00,WUHU216CR1000,2013-07-23 03:33:00,
2013-07-22 20:38:00,63.4,54.8,0.00,WSW,237,2.3,3.9,74,0.00,,,0.00,WUHU216CR1000,2013-07-23 03:38:00,
2013-07-22 20:43:00,63.4,54.8,0.00,WSW,237,2.3,3.9,74,0.00,,,0.00,WUHU216CR1000,2013-07-23 03:43:00,
2013-07-22 20:48:00,63.3,54.7,0.00,SW,225,1.6,4.2,74,0.00,,,0.00,WUHU216CR1000,2013-07-23 03:48:00,
2013-07-22 20:53:00,63.3,54.7,0.00,SW,225,1.6,4.2,74,0.00,,,0.00,WUHU216CR1000,2013-07-23 03:53:00,
2013-07-22 20:58:00,63.3,54.7,0.00,SW,225,1.6,4.2,74,0.00,,,0.00,WUHU216CR1000,2013-07-23 03:58:00,
2013-07-22 21:01:00,63.3,54.7,0.00,SW,225,1.6,4.2,74,0.00,,,0.00,WUHU216CR1000,2013-07-23 04:01:00,
2013-07-22 21:02:00,63.3,54.7,0.00,West,274,1.9,4.2,73,0.00,,,0.00,WUHU216CR1000,2013-07-23 04:02:00,
2013-07-22 21:06:00,63.3,54.7,0.00,West,274,1.9,3.6,73,0.00,,,0.00,WUHU216CR1000,2013-07-23 04:06:00,
2013-07-22 21:11:00,63.3,54.7,0.00,West,274,1.9,3.6,73,0.00,,,0.00,WUHU216CR1000,2013-07-23 04:11:00,
2013-07-22 21:16:00,63.5,54.8,0.00,SW,232,1.0,3.6,73,0.00,,,0.00,WUHU216CR1000,2013-07-23 04:16:00,
2013-07-22 21:21:00,63.5,54.8,0.00,SW,232,1.0,3.0,73,0.00,,,0.00,WUHU216CR1000,2013-07-23 04:21:00,
2013-07-22 21:26:00,63.5,54.8,0.00,SW,232,1.0,3.0,73,0.00,,,0.00,WUHU216CR1000,2013-07-23 04:26:00,
2013-07-22 21:31:00,63.8,54.9,0.00,ENE,76,0.3,3.0,73,0.00,,,0.00,WUHU216CR1000,2013-07-23 04:31:00,
2013-07-22 21:36:00,63.8,54.9,0.00,ENE,76,0.3,2.3,73,0.00,,,0.00,WUHU216CR1000,2013-07-23 04:36:00,
2013-07-22 21:41:00,63.8,54.9,0.00,ENE,76,0.3,2.3,73,0.00,,,0.00,WUHU216CR1000,2013-07-23 04:41:00,
2013-07-22 21:46:00,63.5,54.8,0.00,ENE,71,1.4,2.7,73,0.00,,,0.00,WUHU216CR1000,2013-07-23 04:46:00,
2013-07-22 21:51:00,63.5,54.8,0.00,ENE,71,1.4,2.7,73,0.00,,,0.00,WUHU216CR1000,2013-07-23 04:51:00,
2013-07-22 21:56:00,63.5,54.8,0.00,ENE,71,1.4,2.7,73,0.00,,,0.00,WUHU216CR1000,2013-07-23 04:56:00,
2013-07-22 22:01:00,63.2,54.9,0.00,NE,50,1.9,3.2,74,0.00,,,0.00,WUHU216CR1000,2013-07-23 05:01:00,
2013-07-22 22:06:00,63.2,54.9,0.00,NE,50,1.9,3.2,74,0.00,,,0.00,WUHU216CR1000,2013-07-23 05:06:00,
2013-07-22 22:11:00,63.2,54.9,0.00,NE,50,1.9,3.2,74,0.00,,,0.00,WUHU216CR1000,2013-07-23 05:11:00,
2013-07-22 22:16:00,62.7,54.9,0.00,NE,56,0.7,3.2,75,0.00,,,0.00,WUHU216CR1000,2013-07-23 05:16:00,
2013-07-22 22:21:00,62.7,54.9,0.00,NE,56,0.7,2.0,75,0.00,,,0.00,WUHU216CR1000,2013-07-23 05:21:00,
2013-07-22 22:26:00,62.7,54.9,0.00,NE,56,0.7,2.0,75,0.00,,,0.00,WUHU216CR1000,2013-07-23 05:26:00,
2013-07-22 22:31:00,61.9,55.0,0.00,WNW,292,0.4,2.0,78,0.00,,,0.00,WUHU216CR1000,2013-07-23 05:31:00,
2013-07-22 22:36:00,61.9,55.0,0.00,WNW,292,0.4,1.9,78,0.00,,,0.00,WUHU216CR1000,2013-07-23 05:36:00,
2013-07-22 22:41:00,61.9,55.0,0.00,WNW,292,0.4,1.9,78,0.00,,,0.00,WUHU216CR1000,2013-07-23 05:41:00,
2013-07-22 22:46:00,61.4,55.0,0.00,ENE,71,0.5,1.9,80,0.00,,,0.00,WUHU216CR1000,2013-07-23 05:46:00,
2013-07-22 22:51:00,61.4,55.0,0.00,ENE,71,0.5,1.4,80,0.00,,,0.00,WUHU216CR1000,2013-07-23 05:51:00,
2013-07-22 22:56:00,61.4,55.0,0.00,ENE,71,0.5,1.4,80,0.00,,,0.00,WUHU216CR1000,2013-07-23 05:56:00,
2013-07-22 23:01:00,61.2,55.0,0.00,SSE,161,0.4,1.4,80,0.00,,,0.00,WUHU216CR1000,2013-07-23 06:01:00,
2013-07-22 23:06:00,61.2,55.0,0.00,SSE,161,0.4,1.4,80,0.00,,,0.00,WUHU216CR1000,2013-07-23 06:06:00,
2013-07-22 23:11:00,61.2,55.0,0.00,SSE,161,0.4,1.4,80,0.00,,,0.00,WUHU216CR1000,2013-07-23 06:11:00,
2013-07-22 23:17:00,61.0,55.0,0.00,SSW,207,0.7,2.2,81,0.00,,,0.00,WUHU216CR1000,2013-07-23 06:17:00,
2013-07-22 23:22:00,61.0,55.0,0.00,SSW,207,0.7,2.2,81,0.00,,,0.00,WUHU216CR1000,2013-07-23 06:22:00,
2013-07-22 23:27:00,61.0,55.0,0.00,SSW,207,0.7,2.2,81,0.00,,,0.00,WUHU216CR1000,2013-07-23 06:27:00,
2013-07-22 23:31:00,60.5,55.0,0.00,SW,227,1.5,3.6,82,0.00,,,0.00,WUHU216CR1000,2013-07-23 06:31:00,
2013-07-22 23:36:00,60.5,55.0,0.00,SW,227,1.5,3.6,82,0.00,,,0.00,WUHU216CR1000,2013-07-23 06:36:00,
2013-07-22 23:42:00,60.5,55.0,0.00,SW,227,1.5,3.6,82,0.00,,,0.00,WUHU216CR1000,2013-07-23 06:42:00,
2013-07-22 23:47:00,60.2,55.2,0.00,WSW,245,2.3,4.2,84,0.00,,,0.00,WUHU216CR1000,2013-07-23 06:47:00,
2013-07-22 23:52:00,60.2,55.2,0.00,WSW,245,2.3,4.2,84,0.00,,,0.00,WUHU216CR1000,2013-07-23 06:52:00,
2013-07-22 23:57:00,60.2,55.2,0.00,WSW,245,2.3,4.2,84,0.00,,,0.00,WUHU216CR1000,2013-07-23 06:57:00,